Orbital elements of COSMOS 2251 DEB
| Launched | 15 June 1993 |
| Flight ended | – |
| Launch site | Plesetsk Missile and Space Complex, Russia |
| Owner | Commonwealth of Independent States (former USSR) |
| NORAD ID | 35022 |
| Date fetched |
Epoch osculation |
Inc. [°] |
Ecc. | RA asc node [hr] |
Arg Peri. [°] |
Mean anom [°] |
Mean motion [rev/day] |
Abs. mag |
| Date fetched |
Epoch osculation |
Inc. [°] |
Ecc. | RA asc node [hr] |
Arg Peri. [°] |
Mean anom [°] |
Mean motion [rev/day] |
Abs. mag |
| 2026 May 09 17:57 | 2026 May 05 12:25:58 | 74.0256 | 0.00482 | 3.1244 | 209.0169 | 150.8318 | 14.61456 | – |
| 2026 May 08 17:57 | 2026 May 05 12:25:58 | 74.0256 | 0.00482 | 3.1244 | 209.0169 | 150.8318 | 14.61456 | – |
| 2026 May 07 17:58 | 2026 May 05 12:25:58 | 74.0256 | 0.00482 | 3.1244 | 209.0169 | 150.8318 | 14.61456 | – |
| 2026 May 06 17:57 | 2026 May 05 12:25:58 | 74.0256 | 0.00482 | 3.1244 | 209.0169 | 150.8318 | 14.61456 | – |
| 2026 May 05 17:57 | 2026 May 05 12:25:58 | 74.0256 | 0.00482 | 3.1244 | 209.0169 | 150.8318 | 14.61456 | – |
| 2026 May 04 17:57 | 2026 Apr 29 13:30:05 | 74.0254 | 0.00485 | 3.8843 | 221.9703 | 150.8318 | 14.61456 | – |
| 2026 May 03 17:57 | 2026 Apr 29 13:30:05 | 74.0254 | 0.00485 | 3.8843 | 221.9703 | 150.8318 | 14.61456 | – |
| 2026 May 02 17:57 | 2026 Apr 29 13:30:05 | 74.0254 | 0.00485 | 3.8843 | 221.9703 | 150.8318 | 14.61456 | – |
| 2026 May 01 17:56 | 2026 Apr 29 13:30:05 | 74.0254 | 0.00485 | 3.8843 | 221.9703 | 150.8318 | 14.61456 | – |
| 2026 Apr 30 17:56 | 2026 Apr 29 13:30:05 | 74.0254 | 0.00485 | 3.8843 | 221.9703 | 150.8318 | 14.61456 | – |
| 2026 Apr 29 17:57 | 2026 Apr 23 14:34:04 | 74.0242 | 0.00487 | 4.6442 | 234.6295 | 150.8318 | 14.61456 | – |
| 2026 Apr 28 17:56 | 2026 Apr 23 14:34:04 | 74.0242 | 0.00487 | 4.6442 | 234.6295 | 150.8318 | 14.61456 | – |
| 2026 Apr 27 17:58 | 2026 Apr 23 14:34:04 | 74.0242 | 0.00487 | 4.6442 | 234.6295 | 150.8318 | 14.61456 | – |
| 2026 Apr 26 17:58 | 2026 Apr 23 14:34:04 | 74.0242 | 0.00487 | 4.6442 | 234.6295 | 150.8318 | 14.61456 | – |
| 2026 Apr 25 17:58 | 2026 Apr 23 14:34:04 | 74.0242 | 0.00487 | 4.6442 | 234.6295 | 150.8318 | 14.61456 | – |
| 2026 Apr 24 17:59 | 2026 Apr 23 14:34:04 | 74.0242 | 0.00487 | 4.6442 | 234.6295 | 150.8318 | 14.61456 | – |
| 2026 Apr 23 17:57 | 2026 Apr 15 15:59:14 | 74.0209 | 0.00489 | 5.6572 | 251.5983 | 150.8318 | 14.61456 | – |
| 2026 Apr 22 17:57 | 2026 Apr 15 15:59:14 | 74.0209 | 0.00489 | 5.6572 | 251.5983 | 150.8318 | 14.61456 | – |
| 2026 Apr 21 17:57 | 2026 Apr 15 15:59:14 | 74.0209 | 0.00489 | 5.6572 | 251.5983 | 150.8318 | 14.61456 | – |
| 2026 Apr 20 17:57 | 2026 Apr 15 15:59:14 | 74.0209 | 0.00489 | 5.6572 | 251.5983 | 150.8318 | 14.61456 | – |
| 2026 Apr 19 17:58 | 2026 Apr 15 15:59:14 | 74.0209 | 0.00489 | 5.6572 | 251.5983 | 150.8318 | 14.61456 | – |
| 2026 Apr 18 17:56 | 2026 Apr 12 05:50:23 | 74.0211 | 0.00492 | 6.0940 | 258.8386 | 150.8318 | 14.61456 | – |
| 2026 Apr 16 17:57 | 2026 Apr 12 05:50:23 | 74.0211 | 0.00492 | 6.0940 | 258.8386 | 150.8318 | 14.61456 | – |
| 2026 Apr 14 17:57 | 2026 Apr 12 05:50:23 | 74.0211 | 0.00492 | 6.0940 | 258.8386 | 150.8318 | 14.61456 | – |
| 2026 Apr 13 17:57 | 2026 Apr 12 05:50:23 | 74.0211 | 0.00492 | 6.0940 | 258.8386 | 150.8318 | 14.61456 | – |
| 2026 Apr 12 17:57 | 2026 Apr 07 17:24:15 | 74.0235 | 0.00491 | 6.6707 | 268.2991 | 150.8318 | 14.61456 | – |